sensor_id;sensor_type;location;lat;lon;timestamp;P1;durP1;ratioP1;P2;durP2;ratioP2
15633;SDS011;14654;48.898;8.308;2024-02-21T00:00:47;7.20;;;4.60;;
15633;SDS011;14654;48.898;8.308;2024-02-21T00:03:13;5.87;;;4.07;;
15633;SDS011;14654;48.898;8.308;2024-02-21T00:05:38;5.03;;;3.40;;
15633;SDS011;14654;48.898;8.308;2024-02-21T00:08:03;4.63;;;3.60;;
15633;SDS011;14654;48.898;8.308;2024-02-21T00:10:29;7.87;;;3.83;;
15633;SDS011;14654;48.898;8.308;2024-02-21T00:12:56;7.13;;;3.73;;
15633;SDS011;14654;48.898;8.308;2024-02-21T00:15:22;4.63;;;3.60;;
15633;SDS011;14654;48.898;8.308;2024-02-21T00:17:47;6.27;;;3.70;;
15633;SDS011;14654;48.898;8.308;2024-02-21T00:20:13;6.40;;;3.80;;
15633;SDS011;14654;48.898;8.308;2024-02-21T00:22:39;5.63;;;3.47;;
15633;SDS011;14654;48.898;8.308;2024-02-21T00:25:04;4.90;;;3.33;;
15633;SDS011;14654;48.898;8.308;2024-02-21T00:27:29;9.53;;;4.17;;
15633;SDS011;14654;48.898;8.308;2024-02-21T00:29:56;8.57;;;4.37;;
15633;SDS011;14654;48.898;8.308;2024-02-21T00:32:21;6.47;;;4.63;;
15633;SDS011;14654;48.898;8.308;2024-02-21T00:34:46;6.47;;;3.60;;
15633;SDS011;14654;48.898;8.308;2024-02-21T00:37:11;6.77;;;3.83;;
15633;SDS011;14654;48.898;8.308;2024-02-21T00:39:37;10.43;;;4.40;;
15633;SDS011;14654;48.898;8.308;2024-02-21T00:42:02;7.13;;;4.00;;
15633;SDS011;14654;48.898;8.308;2024-02-21T00:44:28;5.73;;;3.60;;
15633;SDS011;14654;48.898;8.308;2024-02-21T00:46:53;5.90;;;3.37;;
15633;SDS011;14654;48.898;8.308;2024-02-21T00:49:19;6.03;;;3.83;;
15633;SDS011;14654;48.898;8.308;2024-02-21T00:51:44;6.37;;;3.60;;
15633;SDS011;14654;48.898;8.308;2024-02-21T00:54:09;5.53;;;3.10;;
15633;SDS011;14654;48.898;8.308;2024-02-21T00:56:35;5.07;;;3.17;;
15633;SDS011;14654;48.898;8.308;2024-02-21T00:59:00;6.80;;;3.53;;
15633;SDS011;14654;48.898;8.308;2024-02-21T01:01:25;6.87;;;3.47;;
15633;SDS011;14654;48.898;8.308;2024-02-21T01:03:51;6.60;;;3.73;;
15633;SDS011;14654;48.898;8.308;2024-02-21T01:06:18;5.17;;;3.57;;
15633;SDS011;14654;48.898;8.308;2024-02-21T01:08:44;5.53;;;3.33;;
15633;SDS011;14654;48.898;8.308;2024-02-21T01:11:09;6.50;;;2.93;;
15633;SDS011;14654;48.898;8.308;2024-02-21T01:13:36;4.97;;;3.57;;
15633;SDS011;14654;48.898;8.308;2024-02-21T01:16:01;4.23;;;3.17;;
15633;SDS011;14654;48.898;8.308;2024-02-21T01:18:26;4.57;;;3.10;;
15633;SDS011;14654;48.898;8.308;2024-02-21T01:20:51;4.30;;;2.70;;
15633;SDS011;14654;48.898;8.308;2024-02-21T01:23:17;4.73;;;3.10;;
15633;SDS011;14654;48.898;8.308;2024-02-21T01:25:42;4.00;;;2.67;;
15633;SDS011;14654;48.898;8.308;2024-02-21T01:28:07;4.37;;;3.10;;
15633;SDS011;14654;48.898;8.308;2024-02-21T01:30:33;5.43;;;3.20;;
15633;SDS011;14654;48.898;8.308;2024-02-21T01:32:58;6.60;;;3.10;;
15633;SDS011;14654;48.898;8.308;2024-02-21T01:35:23;4.90;;;3.50;;
15633;SDS011;14654;48.898;8.308;2024-02-21T01:37:49;5.00;;;2.83;;
15633;SDS011;14654;48.898;8.308;2024-02-21T01:40:14;5.23;;;2.90;;
15633;SDS011;14654;48.898;8.308;2024-02-21T01:42:40;5.20;;;2.87;;
15633;SDS011;14654;48.898;8.308;2024-02-21T01:45:08;7.43;;;3.43;;
15633;SDS011;14654;48.898;8.308;2024-02-21T01:47:34;4.23;;;2.93;;
15633;SDS011;14654;48.898;8.308;2024-02-21T01:50:00;5.20;;;2.90;;
15633;SDS011;14654;48.898;8.308;2024-02-21T01:52:27;6.47;;;2.87;;
15633;SDS011;14654;48.898;8.308;2024-02-21T01:54:54;3.97;;;2.57;;
15633;SDS011;14654;48.898;8.308;2024-02-21T01:57:20;4.77;;;2.63;;
15633;SDS011;14654;48.898;8.308;2024-02-21T01:59:45;6.07;;;3.00;;
15633;SDS011;14654;48.898;8.308;2024-02-21T02:02:11;6.03;;;3.43;;
15633;SDS011;14654;48.898;8.308;2024-02-21T02:04:37;5.30;;;2.77;;
15633;SDS011;14654;48.898;8.308;2024-02-21T02:07:03;5.30;;;2.87;;
15633;SDS011;14654;48.898;8.308;2024-02-21T02:09:31;6.90;;;3.03;;
15633;SDS011;14654;48.898;8.308;2024-02-21T02:11:57;4.40;;;2.97;;
15633;SDS011;14654;48.898;8.308;2024-02-21T02:14:23;6.07;;;2.97;;
15633;SDS011;14654;48.898;8.308;2024-02-21T02:16:48;5.63;;;2.73;;
15633;SDS011;14654;48.898;8.308;2024-02-21T02:19:14;5.10;;;2.70;;
15633;SDS011;14654;48.898;8.308;2024-02-21T02:21:41;4.70;;;2.77;;
15633;SDS011;14654;48.898;8.308;2024-02-21T02:24:11;4.60;;;3.20;;
15633;SDS011;14654;48.898;8.308;2024-02-21T02:26:37;4.00;;;2.80;;
15633;SDS011;14654;48.898;8.308;2024-02-21T02:29:02;5.43;;;2.73;;
15633;SDS011;14654;48.898;8.308;2024-02-21T02:31:27;4.37;;;2.50;;
15633;SDS011;14654;48.898;8.308;2024-02-21T02:33:53;5.10;;;2.93;;
15633;SDS011;14654;48.898;8.308;2024-02-21T02:36:18;5.03;;;2.97;;
15633;SDS011;14654;48.898;8.308;2024-02-21T02:38:43;6.60;;;3.00;;
15633;SDS011;14654;48.898;8.308;2024-02-21T02:41:09;6.37;;;3.17;;
15633;SDS011;14654;48.898;8.308;2024-02-21T02:43:34;3.63;;;2.87;;
15633;SDS011;14654;48.898;8.308;2024-02-21T02:45:59;4.73;;;3.00;;
15633;SDS011;14654;48.898;8.308;2024-02-21T02:48:25;4.50;;;2.90;;
15633;SDS011;14654;48.898;8.308;2024-02-21T02:50:50;4.03;;;2.43;;
15633;SDS011;14654;48.898;8.308;2024-02-21T02:53:15;4.77;;;2.50;;
15633;SDS011;14654;48.898;8.308;2024-02-21T02:55:41;5.33;;;3.37;;
15633;SDS011;14654;48.898;8.308;2024-02-21T02:58:06;4.07;;;2.80;;
15633;SDS011;14654;48.898;8.308;2024-02-21T03:00:31;5.63;;;2.77;;
15633;SDS011;14654;48.898;8.308;2024-02-21T03:03:01;6.20;;;3.27;;
15633;SDS011;14654;48.898;8.308;2024-02-21T03:05:27;6.03;;;3.10;;
15633;SDS011;14654;48.898;8.308;2024-02-21T03:07:52;4.97;;;2.87;;
15633;SDS011;14654;48.898;8.308;2024-02-21T03:10:17;4.40;;;3.17;;
15633;SDS011;14654;48.898;8.308;2024-02-21T03:12:43;4.90;;;3.13;;
15633;SDS011;14654;48.898;8.308;2024-02-21T03:15:08;4.37;;;2.47;;
15633;SDS011;14654;48.898;8.308;2024-02-21T03:17:34;4.53;;;2.80;;
15633;SDS011;14654;48.898;8.308;2024-02-21T03:20:00;4.10;;;2.70;;
15633;SDS011;14654;48.898;8.308;2024-02-21T03:22:35;5.00;;;2.80;;
15633;SDS011;14654;48.898;8.308;2024-02-21T03:25:00;4.17;;;2.97;;
15633;SDS011;14654;48.898;8.308;2024-02-21T03:27:26;3.87;;;2.67;;
15633;SDS011;14654;48.898;8.308;2024-02-21T03:29:51;5.07;;;2.93;;
15633;SDS011;14654;48.898;8.308;2024-02-21T03:32:16;5.50;;;3.37;;
15633;SDS011;14654;48.898;8.308;2024-02-21T03:34:42;5.70;;;3.50;;
15633;SDS011;14654;48.898;8.308;2024-02-21T03:37:07;7.00;;;3.40;;
15633;SDS011;14654;48.898;8.308;2024-02-21T03:39:32;4.57;;;3.30;;
15633;SDS011;14654;48.898;8.308;2024-02-21T03:41:58;3.70;;;3.07;;
15633;SDS011;14654;48.898;8.308;2024-02-21T03:44:26;4.00;;;2.87;;
15633;SDS011;14654;48.898;8.308;2024-02-21T03:46:52;4.73;;;2.93;;
15633;SDS011;14654;48.898;8.308;2024-02-21T03:49:17;4.30;;;3.47;;
15633;SDS011;14654;48.898;8.308;2024-02-21T03:51:43;5.33;;;3.13;;
15633;SDS011;14654;48.898;8.308;2024-02-21T03:54:08;4.23;;;2.93;;
15633;SDS011;14654;48.898;8.308;2024-02-21T03:56:36;4.27;;;3.20;;
15633;SDS011;14654;48.898;8.308;2024-02-21T03:59:02;4.33;;;2.97;;
15633;SDS011;14654;48.898;8.308;2024-02-21T04:01:27;4.33;;;3.20;;
15633;SDS011;14654;48.898;8.308;2024-02-21T04:03:53;4.27;;;3.20;;
15633;SDS011;14654;48.898;8.308;2024-02-21T04:06:18;4.83;;;3.10;;
15633;SDS011;14654;48.898;8.308;2024-02-21T04:08:44;5.07;;;3.20;;
15633;SDS011;14654;48.898;8.308;2024-02-21T04:11:10;4.33;;;3.30;;
15633;SDS011;14654;48.898;8.308;2024-02-21T04:13:35;5.77;;;3.50;;
15633;SDS011;14654;48.898;8.308;2024-02-21T04:16:00;6.57;;;3.60;;
15633;SDS011;14654;48.898;8.308;2024-02-21T04:18:26;5.30;;;3.30;;
15633;SDS011;14654;48.898;8.308;2024-02-21T04:20:51;6.00;;;3.10;;
15633;SDS011;14654;48.898;8.308;2024-02-21T04:23:17;4.50;;;2.83;;
15633;SDS011;14654;48.898;8.308;2024-02-21T04:25:42;5.50;;;3.67;;
15633;SDS011;14654;48.898;8.308;2024-02-21T04:28:07;5.03;;;3.03;;
15633;SDS011;14654;48.898;8.308;2024-02-21T04:30:32;4.67;;;2.83;;
15633;SDS011;14654;48.898;8.308;2024-02-21T04:32:58;3.97;;;3.10;;
15633;SDS011;14654;48.898;8.308;2024-02-21T04:35:23;3.37;;;2.67;;
15633;SDS011;14654;48.898;8.308;2024-02-21T04:37:49;5.33;;;3.23;;
15633;SDS011;14654;48.898;8.308;2024-02-21T04:40:14;6.60;;;3.37;;
15633;SDS011;14654;48.898;8.308;2024-02-21T04:42:41;5.63;;;3.03;;
15633;SDS011;14654;48.898;8.308;2024-02-21T04:45:07;3.83;;;2.70;;
15633;SDS011;14654;48.898;8.308;2024-02-21T04:47:32;3.57;;;2.57;;
15633;SDS011;14654;48.898;8.308;2024-02-21T04:49:58;4.73;;;3.13;;
15633;SDS011;14654;48.898;8.308;2024-02-21T04:52:23;4.80;;;3.03;;
15633;SDS011;14654;48.898;8.308;2024-02-21T04:54:48;5.47;;;3.37;;
15633;SDS011;14654;48.898;8.308;2024-02-21T04:57:14;4.23;;;3.20;;
15633;SDS011;14654;48.898;8.308;2024-02-21T04:59:43;5.57;;;3.50;;
15633;SDS011;14654;48.898;8.308;2024-02-21T05:02:10;4.43;;;3.40;;
15633;SDS011;14654;48.898;8.308;2024-02-21T05:04:36;5.53;;;3.77;;
15633;SDS011;14654;48.898;8.308;2024-02-21T05:07:03;6.53;;;3.90;;
15633;SDS011;14654;48.898;8.308;2024-02-21T05:09:29;8.13;;;4.03;;
15633;SDS011;14654;48.898;8.308;2024-02-21T05:11:54;5.67;;;3.60;;
15633;SDS011;14654;48.898;8.308;2024-02-21T05:14:19;4.77;;;3.50;;
15633;SDS011;14654;48.898;8.308;2024-02-21T05:16:45;6.20;;;3.37;;
15633;SDS011;14654;48.898;8.308;2024-02-21T05:19:10;4.83;;;3.30;;
15633;SDS011;14654;48.898;8.308;2024-02-21T05:21:35;4.10;;;3.67;;
15633;SDS011;14654;48.898;8.308;2024-02-21T05:24:00;5.67;;;3.33;;
15633;SDS011;14654;48.898;8.308;2024-02-21T05:26:26;6.63;;;3.97;;
15633;SDS011;14654;48.898;8.308;2024-02-21T05:28:52;4.17;;;3.30;;
15633;SDS011;14654;48.898;8.308;2024-02-21T05:31:18;4.07;;;3.13;;
15633;SDS011;14654;48.898;8.308;2024-02-21T05:33:44;3.47;;;2.77;;
15633;SDS011;14654;48.898;8.308;2024-02-21T05:36:10;4.50;;;3.40;;
15633;SDS011;14654;48.898;8.308;2024-02-21T05:38:36;3.30;;;3.00;;
15633;SDS011;14654;48.898;8.308;2024-02-21T05:41:02;5.10;;;3.60;;
15633;SDS011;14654;48.898;8.308;2024-02-21T05:43:27;8.40;;;3.83;;
15633;SDS011;14654;48.898;8.308;2024-02-21T05:45:53;5.73;;;3.10;;
15633;SDS011;14654;48.898;8.308;2024-02-21T05:48:18;3.30;;;2.87;;
15633;SDS011;14654;48.898;8.308;2024-02-21T05:50:43;5.47;;;3.23;;
15633;SDS011;14654;48.898;8.308;2024-02-21T05:53:09;3.80;;;2.90;;
15633;SDS011;14654;48.898;8.308;2024-02-21T05:55:35;3.27;;;2.97;;
15633;SDS011;14654;48.898;8.308;2024-02-21T05:58:00;4.80;;;3.50;;
15633;SDS011;14654;48.898;8.308;2024-02-21T06:00:27;5.70;;;3.40;;
15633;SDS011;14654;48.898;8.308;2024-02-21T06:02:52;5.07;;;3.43;;
15633;SDS011;14654;48.898;8.308;2024-02-21T06:05:17;6.27;;;3.60;;
15633;SDS011;14654;48.898;8.308;2024-02-21T06:07:43;4.17;;;3.23;;
15633;SDS011;14654;48.898;8.308;2024-02-21T06:10:08;4.93;;;3.47;;
15633;SDS011;14654;48.898;8.308;2024-02-21T06:12:34;5.90;;;3.23;;
15633;SDS011;14654;48.898;8.308;2024-02-21T06:14:59;5.00;;;3.60;;
15633;SDS011;14654;48.898;8.308;2024-02-21T06:17:24;5.53;;;3.53;;
15633;SDS011;14654;48.898;8.308;2024-02-21T06:19:50;5.07;;;3.30;;
15633;SDS011;14654;48.898;8.308;2024-02-21T06:22:15;6.83;;;3.70;;
15633;SDS011;14654;48.898;8.308;2024-02-21T06:24:40;4.00;;;3.40;;
15633;SDS011;14654;48.898;8.308;2024-02-21T06:27:06;4.30;;;3.17;;
15633;SDS011;14654;48.898;8.308;2024-02-21T06:29:31;3.63;;;3.07;;
15633;SDS011;14654;48.898;8.308;2024-02-21T06:31:57;4.80;;;3.70;;
15633;SDS011;14654;48.898;8.308;2024-02-21T06:34:23;5.53;;;3.63;;
15633;SDS011;14654;48.898;8.308;2024-02-21T06:36:49;5.70;;;3.50;;
15633;SDS011;14654;48.898;8.308;2024-02-21T06:39:14;4.43;;;3.40;;
15633;SDS011;14654;48.898;8.308;2024-02-21T06:41:40;8.50;;;4.17;;
15633;SDS011;14654;48.898;8.308;2024-02-21T06:44:05;4.87;;;3.67;;
15633;SDS011;14654;48.898;8.308;2024-02-21T06:46:31;5.60;;;3.73;;
15633;SDS011;14654;48.898;8.308;2024-02-21T06:48:58;6.27;;;4.03;;
15633;SDS011;14654;48.898;8.308;2024-02-21T06:51:30;6.43;;;3.57;;
15633;SDS011;14654;48.898;8.308;2024-02-21T06:53:55;8.10;;;5.00;;
15633;SDS011;14654;48.898;8.308;2024-02-21T06:56:24;6.73;;;4.90;;
15633;SDS011;14654;48.898;8.308;2024-02-21T06:58:56;9.03;;;6.03;;
15633;SDS011;14654;48.898;8.308;2024-02-21T07:01:22;10.27;;;6.60;;
15633;SDS011;14654;48.898;8.308;2024-02-21T07:03:47;10.83;;;6.07;;
15633;SDS011;14654;48.898;8.308;2024-02-21T07:06:13;6.97;;;4.20;;
15633;SDS011;14654;48.898;8.308;2024-02-21T07:08:38;5.90;;;3.77;;
15633;SDS011;14654;48.898;8.308;2024-02-21T07:11:04;5.43;;;3.50;;
15633;SDS011;14654;48.898;8.308;2024-02-21T07:13:29;6.07;;;3.60;;
15633;SDS011;14654;48.898;8.308;2024-02-21T07:15:55;4.10;;;3.50;;
15633;SDS011;14654;48.898;8.308;2024-02-21T07:18:20;5.67;;;3.83;;
15633;SDS011;14654;48.898;8.308;2024-02-21T07:20:46;5.47;;;3.70;;
15633;SDS011;14654;48.898;8.308;2024-02-21T07:23:11;4.80;;;3.70;;
15633;SDS011;14654;48.898;8.308;2024-02-21T07:25:36;5.47;;;3.67;;
15633;SDS011;14654;48.898;8.308;2024-02-21T07:28:01;4.07;;;3.50;;
15633;SDS011;14654;48.898;8.308;2024-02-21T07:30:27;4.97;;;3.37;;
15633;SDS011;14654;48.898;8.308;2024-02-21T07:32:53;5.87;;;3.77;;
15633;SDS011;14654;48.898;8.308;2024-02-21T07:35:18;6.83;;;3.83;;
15633;SDS011;14654;48.898;8.308;2024-02-21T07:37:43;4.97;;;3.40;;
15633;SDS011;14654;48.898;8.308;2024-02-21T07:40:12;5.57;;;3.37;;
15633;SDS011;14654;48.898;8.308;2024-02-21T07:42:39;4.37;;;3.07;;
15633;SDS011;14654;48.898;8.308;2024-02-21T07:45:04;3.87;;;3.10;;
15633;SDS011;14654;48.898;8.308;2024-02-21T07:47:29;4.70;;;3.30;;
15633;SDS011;14654;48.898;8.308;2024-02-21T07:49:55;5.57;;;3.60;;
15633;SDS011;14654;48.898;8.308;2024-02-21T07:52:20;6.90;;;4.43;;
15633;SDS011;14654;48.898;8.308;2024-02-21T07:54:45;4.63;;;3.57;;
15633;SDS011;14654;48.898;8.308;2024-02-21T07:57:11;6.40;;;4.20;;
15633;SDS011;14654;48.898;8.308;2024-02-21T07:59:36;4.57;;;3.97;;
15633;SDS011;14654;48.898;8.308;2024-02-21T08:02:01;4.73;;;3.90;;
15633;SDS011;14654;48.898;8.308;2024-02-21T08:04:27;4.53;;;3.90;;
15633;SDS011;14654;48.898;8.308;2024-02-21T08:06:53;7.03;;;4.60;;
15633;SDS011;14654;48.898;8.308;2024-02-21T08:09:20;7.93;;;4.53;;
15633;SDS011;14654;48.898;8.308;2024-02-21T08:11:46;8.97;;;5.07;;
15633;SDS011;14654;48.898;8.308;2024-02-21T08:14:11;6.73;;;5.13;;
15633;SDS011;14654;48.898;8.308;2024-02-21T08:16:36;6.43;;;4.60;;
15633;SDS011;14654;48.898;8.308;2024-02-21T08:19:02;7.50;;;5.17;;
15633;SDS011;14654;48.898;8.308;2024-02-21T08:21:29;8.30;;;6.33;;
15633;SDS011;14654;48.898;8.308;2024-02-21T08:23:54;9.67;;;7.47;;
15633;SDS011;14654;48.898;8.308;2024-02-21T08:26:20;8.90;;;6.50;;
15633;SDS011;14654;48.898;8.308;2024-02-21T08:28:45;9.40;;;6.73;;
15633;SDS011;14654;48.898;8.308;2024-02-21T08:31:10;6.40;;;5.00;;
15633;SDS011;14654;48.898;8.308;2024-02-21T08:33:36;6.43;;;4.43;;
15633;SDS011;14654;48.898;8.308;2024-02-21T08:36:01;8.07;;;4.13;;
15633;SDS011;14654;48.898;8.308;2024-02-21T08:38:26;7.13;;;4.00;;
15633;SDS011;14654;48.898;8.308;2024-02-21T08:40:52;5.50;;;4.20;;
15633;SDS011;14654;48.898;8.308;2024-02-21T08:43:17;5.20;;;3.90;;
15633;SDS011;14654;48.898;8.308;2024-02-21T08:45:42;6.83;;;4.20;;
15633;SDS011;14654;48.898;8.308;2024-02-21T08:48:07;5.87;;;4.37;;
15633;SDS011;14654;48.898;8.308;2024-02-21T08:50:33;6.00;;;3.97;;
15633;SDS011;14654;48.898;8.308;2024-02-21T08:52:58;5.83;;;3.50;;
15633;SDS011;14654;48.898;8.308;2024-02-21T08:55:23;5.37;;;3.63;;
15633;SDS011;14654;48.898;8.308;2024-02-21T08:57:49;5.93;;;3.87;;
15633;SDS011;14654;48.898;8.308;2024-02-21T09:00:15;5.37;;;3.83;;
15633;SDS011;14654;48.898;8.308;2024-02-21T09:02:41;6.73;;;3.77;;
15633;SDS011;14654;48.898;8.308;2024-02-21T09:05:09;5.97;;;3.50;;
15633;SDS011;14654;48.898;8.308;2024-02-21T09:07:35;6.57;;;4.13;;
15633;SDS011;14654;48.898;8.308;2024-02-21T09:10:00;7.13;;;3.87;;
15633;SDS011;14654;48.898;8.308;2024-02-21T09:12:26;5.83;;;3.63;;
15633;SDS011;14654;48.898;8.308;2024-02-21T09:14:51;7.20;;;3.83;;
15633;SDS011;14654;48.898;8.308;2024-02-21T09:17:17;7.63;;;3.93;;
15633;SDS011;14654;48.898;8.308;2024-02-21T09:19:42;8.77;;;4.47;;
15633;SDS011;14654;48.898;8.308;2024-02-21T09:22:07;6.07;;;3.90;;
15633;SDS011;14654;48.898;8.308;2024-02-21T09:24:33;6.57;;;4.10;;
15633;SDS011;14654;48.898;8.308;2024-02-21T09:26:58;6.20;;;4.07;;
15633;SDS011;14654;48.898;8.308;2024-02-21T09:29:25;6.93;;;3.80;;
15633;SDS011;14654;48.898;8.308;2024-02-21T09:31:50;7.27;;;3.83;;
15633;SDS011;14654;48.898;8.308;2024-02-21T09:34:15;5.47;;;3.40;;
15633;SDS011;14654;48.898;8.308;2024-02-21T09:36:41;4.67;;;3.67;;
15633;SDS011;14654;48.898;8.308;2024-02-21T09:39:06;4.97;;;3.80;;
15633;SDS011;14654;48.898;8.308;2024-02-21T09:41:31;7.07;;;3.90;;
15633;SDS011;14654;48.898;8.308;2024-02-21T09:44:01;5.23;;;3.47;;
15633;SDS011;14654;48.898;8.308;2024-02-21T09:47:10;5.50;;;3.30;;
15633;SDS011;14654;48.898;8.308;2024-02-21T09:49:34;6.87;;;3.20;;
15633;SDS011;14654;48.898;8.308;2024-02-21T09:52:06;6.07;;;3.53;;
15633;SDS011;14654;48.898;8.308;2024-02-21T09:54:32;6.87;;;3.33;;
15633;SDS011;14654;48.898;8.308;2024-02-21T09:57:02;3.83;;;2.83;;
15633;SDS011;14654;48.898;8.308;2024-02-21T09:59:28;5.87;;;3.13;;
15633;SDS011;14654;48.898;8.308;2024-02-21T10:01:56;5.30;;;3.40;;
15633;SDS011;14654;48.898;8.308;2024-02-21T10:04:21;5.60;;;3.37;;
15633;SDS011;14654;48.898;8.308;2024-02-21T10:06:47;6.00;;;3.20;;
15633;SDS011;14654;48.898;8.308;2024-02-21T10:09:28;4.23;;;2.77;;
15633;SDS011;14654;48.898;8.308;2024-02-21T10:11:54;6.37;;;3.53;;
15633;SDS011;14654;48.898;8.308;2024-02-21T10:14:20;5.20;;;2.70;;
15633;SDS011;14654;48.898;8.308;2024-02-21T10:16:49;5.17;;;3.17;;
15633;SDS011;14654;48.898;8.308;2024-02-21T10:19:22;3.53;;;2.97;;
15633;SDS011;14654;48.898;8.308;2024-02-21T10:24:34;6.47;;;2.90;;
15633;SDS011;14654;48.898;8.308;2024-02-21T10:27:04;5.93;;;2.67;;
15633;SDS011;14654;48.898;8.308;2024-02-21T10:29:33;5.03;;;2.80;;
15633;SDS011;14654;48.898;8.308;2024-02-21T10:32:08;4.70;;;2.70;;
15633;SDS011;14654;48.898;8.308;2024-02-21T10:34:38;9.53;;;3.13;;
15633;SDS011;14654;48.898;8.308;2024-02-21T10:37:08;5.70;;;2.90;;
15633;SDS011;14654;48.898;8.308;2024-02-21T10:39:37;4.43;;;2.87;;
15633;SDS011;14654;48.898;8.308;2024-02-21T10:42:03;8.50;;;3.50;;
15633;SDS011;14654;48.898;8.308;2024-02-21T10:44:29;5.93;;;3.30;;
15633;SDS011;14654;48.898;8.308;2024-02-21T10:46:56;4.40;;;3.17;;
15633;SDS011;14654;48.898;8.308;2024-02-21T10:49:23;5.43;;;3.17;;
15633;SDS011;14654;48.898;8.308;2024-02-21T10:52:06;6.60;;;3.07;;
15633;SDS011;14654;48.898;8.308;2024-02-21T10:57:05;4.93;;;2.67;;
15633;SDS011;14654;48.898;8.308;2024-02-21T10:59:32;4.50;;;2.60;;
15633;SDS011;14654;48.898;8.308;2024-02-21T11:01:59;5.07;;;2.60;;
15633;SDS011;14654;48.898;8.308;2024-02-21T11:04:24;5.53;;;2.80;;
15633;SDS011;14654;48.898;8.308;2024-02-21T11:06:51;3.93;;;2.67;;
15633;SDS011;14654;48.898;8.308;2024-02-21T11:09:17;4.13;;;2.50;;
15633;SDS011;14654;48.898;8.308;2024-02-21T11:11:45;3.53;;;2.20;;
15633;SDS011;14654;48.898;8.308;2024-02-21T11:14:11;3.87;;;2.20;;
15633;SDS011;14654;48.898;8.308;2024-02-21T11:16:43;4.77;;;2.53;;
15633;SDS011;14654;48.898;8.308;2024-02-21T11:19:09;4.00;;;2.33;;
15633;SDS011;14654;48.898;8.308;2024-02-21T11:21:36;4.63;;;2.27;;
15633;SDS011;14654;48.898;8.308;2024-02-21T11:24:05;5.70;;;2.20;;
15633;SDS011;14654;48.898;8.308;2024-02-21T11:26:30;4.80;;;2.47;;
15633;SDS011;14654;48.898;8.308;2024-02-21T11:28:57;3.40;;;2.10;;
15633;SDS011;14654;48.898;8.308;2024-02-21T11:31:24;3.10;;;2.00;;
15633;SDS011;14654;48.898;8.308;2024-02-21T11:33:52;3.80;;;1.80;;
15633;SDS011;14654;48.898;8.308;2024-02-21T11:36:27;4.70;;;2.40;;
15633;SDS011;14654;48.898;8.308;2024-02-21T11:38:53;3.07;;;2.10;;
15633;SDS011;14654;48.898;8.308;2024-02-21T11:41:18;3.27;;;2.10;;
15633;SDS011;14654;48.898;8.308;2024-02-21T11:43:45;3.93;;;2.23;;
15633;SDS011;14654;48.898;8.308;2024-02-21T11:46:11;3.50;;;2.03;;
15633;SDS011;14654;48.898;8.308;2024-02-21T11:48:39;4.27;;;2.40;;
15633;SDS011;14654;48.898;8.308;2024-02-21T11:51:06;4.03;;;2.10;;
15633;SDS011;14654;48.898;8.308;2024-02-21T11:53:31;4.33;;;2.33;;
15633;SDS011;14654;48.898;8.308;2024-02-21T11:55:58;4.43;;;2.90;;
15633;SDS011;14654;48.898;8.308;2024-02-21T11:58:23;6.77;;;3.17;;
15633;SDS011;14654;48.898;8.308;2024-02-21T12:00:49;5.77;;;2.40;;
15633;SDS011;14654;48.898;8.308;2024-02-21T12:03:14;3.83;;;1.93;;
15633;SDS011;14654;48.898;8.308;2024-02-21T12:05:41;4.73;;;2.33;;
15633;SDS011;14654;48.898;8.308;2024-02-21T12:08:06;2.90;;;2.43;;
15633;SDS011;14654;48.898;8.308;2024-02-21T12:10:31;4.53;;;2.30;;
15633;SDS011;14654;48.898;8.308;2024-02-21T12:13:05;3.13;;;2.67;;
15633;SDS011;14654;48.898;8.308;2024-02-21T12:15:32;4.47;;;2.30;;
15633;SDS011;14654;48.898;8.308;2024-02-21T12:17:57;3.67;;;2.00;;
15633;SDS011;14654;48.898;8.308;2024-02-21T12:20:22;3.13;;;1.83;;
15633;SDS011;14654;48.898;8.308;2024-02-21T12:22:49;2.97;;;1.77;;
15633;SDS011;14654;48.898;8.308;2024-02-21T12:25:18;3.67;;;2.00;;
15633;SDS011;14654;48.898;8.308;2024-02-21T12:27:45;3.90;;;2.20;;
15633;SDS011;14654;48.898;8.308;2024-02-21T12:30:11;3.93;;;2.30;;
15633;SDS011;14654;48.898;8.308;2024-02-21T12:32:37;3.13;;;1.90;;
15633;SDS011;14654;48.898;8.308;2024-02-21T12:35:02;4.93;;;2.37;;
15633;SDS011;14654;48.898;8.308;2024-02-21T12:37:28;5.03;;;2.33;;
15633;SDS011;14654;48.898;8.308;2024-02-21T12:39:54;3.23;;;2.17;;
15633;SDS011;14654;48.898;8.308;2024-02-21T12:42:19;4.50;;;2.20;;
15633;SDS011;14654;48.898;8.308;2024-02-21T12:44:45;3.73;;;2.13;;
15633;SDS011;14654;48.898;8.308;2024-02-21T12:47:10;3.30;;;1.93;;
15633;SDS011;14654;48.898;8.308;2024-02-21T12:49:36;2.80;;;2.00;;
15633;SDS011;14654;48.898;8.308;2024-02-21T12:52:02;4.97;;;2.47;;
15633;SDS011;14654;48.898;8.308;2024-02-21T12:54:28;3.40;;;2.37;;
15633;SDS011;14654;48.898;8.308;2024-02-21T12:56:55;3.77;;;2.33;;
15633;SDS011;14654;48.898;8.308;2024-02-21T12:59:20;4.67;;;2.40;;
15633;SDS011;14654;48.898;8.308;2024-02-21T13:01:45;2.90;;;2.10;;
15633;SDS011;14654;48.898;8.308;2024-02-21T13:04:11;4.80;;;2.00;;
15633;SDS011;14654;48.898;8.308;2024-02-21T13:06:36;5.30;;;2.70;;
15633;SDS011;14654;48.898;8.308;2024-02-21T13:09:02;4.00;;;2.20;;
15633;SDS011;14654;48.898;8.308;2024-02-21T13:11:28;4.40;;;2.20;;
15633;SDS011;14654;48.898;8.308;2024-02-21T13:13:56;4.20;;;2.30;;
15633;SDS011;14654;48.898;8.308;2024-02-21T13:16:21;4.60;;;2.50;;
15633;SDS011;14654;48.898;8.308;2024-02-21T13:18:47;4.37;;;2.50;;
15633;SDS011;14654;48.898;8.308;2024-02-21T13:21:13;2.77;;;2.07;;
15633;SDS011;14654;48.898;8.308;2024-02-21T13:23:39;4.40;;;2.17;;
15633;SDS011;14654;48.898;8.308;2024-02-21T13:26:05;3.97;;;2.50;;
15633;SDS011;14654;48.898;8.308;2024-02-21T13:28:30;2.23;;;1.70;;
15633;SDS011;14654;48.898;8.308;2024-02-21T13:30:56;4.43;;;2.27;;
15633;SDS011;14654;48.898;8.308;2024-02-21T13:33:22;3.13;;;1.60;;
15633;SDS011;14654;48.898;8.308;2024-02-21T13:35:47;4.67;;;1.90;;
15633;SDS011;14654;48.898;8.308;2024-02-21T13:38:13;5.33;;;2.60;;
15633;SDS011;14654;48.898;8.308;2024-02-21T13:40:39;3.53;;;2.50;;
15633;SDS011;14654;48.898;8.308;2024-02-21T13:43:04;6.70;;;2.20;;
15633;SDS011;14654;48.898;8.308;2024-02-21T13:45:29;3.27;;;2.07;;
15633;SDS011;14654;48.898;8.308;2024-02-21T13:47:56;4.03;;;2.07;;
15633;SDS011;14654;48.898;8.308;2024-02-21T13:50:23;3.40;;;2.30;;
15633;SDS011;14654;48.898;8.308;2024-02-21T13:52:54;2.90;;;2.03;;
15633;SDS011;14654;48.898;8.308;2024-02-21T13:55:19;3.83;;;2.40;;
15633;SDS011;14654;48.898;8.308;2024-02-21T13:57:47;3.53;;;2.27;;
15633;SDS011;14654;48.898;8.308;2024-02-21T14:00:12;3.93;;;2.63;;
15633;SDS011;14654;48.898;8.308;2024-02-21T14:02:38;3.53;;;2.40;;
15633;SDS011;14654;48.898;8.308;2024-02-21T14:05:04;3.43;;;2.70;;
15633;SDS011;14654;48.898;8.308;2024-02-21T14:07:31;3.87;;;2.60;;
15633;SDS011;14654;48.898;8.308;2024-02-21T14:09:58;4.60;;;2.27;;
15633;SDS011;14654;48.898;8.308;2024-02-21T14:12:23;3.10;;;1.90;;
15633;SDS011;14654;48.898;8.308;2024-02-21T14:14:48;4.10;;;2.10;;
15633;SDS011;14654;48.898;8.308;2024-02-21T14:17:15;5.73;;;2.73;;
15633;SDS011;14654;48.898;8.308;2024-02-21T14:19:40;4.30;;;2.40;;
15633;SDS011;14654;48.898;8.308;2024-02-21T14:22:06;4.10;;;2.27;;
15633;SDS011;14654;48.898;8.308;2024-02-21T14:24:32;3.50;;;2.10;;
15633;SDS011;14654;48.898;8.308;2024-02-21T14:26:57;3.63;;;2.40;;
15633;SDS011;14654;48.898;8.308;2024-02-21T14:29:22;4.47;;;2.60;;
15633;SDS011;14654;48.898;8.308;2024-02-21T14:31:48;2.70;;;2.10;;
15633;SDS011;14654;48.898;8.308;2024-02-21T14:34:13;3.57;;;2.13;;
15633;SDS011;14654;48.898;8.308;2024-02-21T14:36:38;3.57;;;2.33;;
15633;SDS011;14654;48.898;8.308;2024-02-21T14:39:05;3.03;;;2.50;;
15633;SDS011;14654;48.898;8.308;2024-02-21T14:41:31;3.13;;;2.40;;
15633;SDS011;14654;48.898;8.308;2024-02-21T14:43:56;4.13;;;2.50;;
15633;SDS011;14654;48.898;8.308;2024-02-21T14:46:25;2.80;;;1.97;;